Abel Tasman — PCVM — position and weather

sailwx.info

Track history (hours):
 
Tides and Currents Weather Stations Pressure Air Temp Water Temp Dewpoint Dewpoint Depression Visibility Wind Speed Wind Dir Waves Ship Positions

Abel Tasman (Netherlands)

Last reported at 2019-Jun-16 01:00 UTC. Time now 2019-Jun-16 01:17 UTC.
Position N 54°51' E 010°31'.

Length 38 m; draft 2.4 m.

Type: Sailing vessel. MMSI: 245877000.

Date/timePositionNaut miles runAvg speedWind from/ knotsBaromVisibWave heightAir tempDewpointWater temp
2019-Jun-16 01:00N 54°51' E 010°31'0 0.0
2019-Jun-16 00:30N 54°51' E 010°31'0 0.0
2019-Jun-16 00:00N 54°51' E 010°31'0 0.0
2019-Jun-15 23:30N 54°51' E 010°31'0 0.0
2019-Jun-15 23:00N 54°51' E 010°31'0 0.0
2019-Jun-15 22:30N 54°51' E 010°31'0 0.0
2019-Jun-15 22:00N 54°51' E 010°31'0 0.0
2019-Jun-15 21:30N 54°51' E 010°31'0 0.0
2019-Jun-15 21:00N 54°51' E 010°31'0 0.0
2019-Jun-15 20:30N 54°51' E 010°31'0 0.0
2019-Jun-15 20:00N 54°51' E 010°31'0 0.0
2019-Jun-15 19:30N 54°51' E 010°31'0 0.0
2019-Jun-15 19:00N 54°51' E 010°31'0 0.0
2019-Jun-15 18:30N 54°51' E 010°31'0 0.0
2019-Jun-15 18:00N 54°51' E 010°31'0 0.0
2019-Jun-15 17:30N 54°51' E 010°31'0 0.0
2019-Jun-15 17:00N 54°51' E 010°31'0 0.0
2019-Jun-15 16:30N 54°51' E 010°31'0 0.0
2019-Jun-15 16:00N 54°51' E 010°31'0 0.0
2019-Jun-15 15:30N 54°51' E 010°31'0 0.0
2019-Jun-15 15:00N 54°51' E 010°31'1 2.2
2019-Jun-15 14:30N 54°51' E 010°33'3 5.2
2019-Jun-15 14:00N 54°49' E 010°29'2 4.9
2019-Jun-15 13:30N 54°47' E 010°26'2 4.6
2019-Jun-15 13:00N 54°45' E 010°25'2 4.8
2019-Jun-15 12:30N 54°43' E 010°23'3 5.2
2019-Jun-15 12:00N 54°40' E 010°22'2 4.5
2019-Jun-15 11:30N 54°38' E 010°21'2 4.8
2019-Jun-15 11:00N 54°36' E 010°20'3 5.7
2019-Jun-15 10:30N 54°33' E 010°18'3 6.5
2019-Jun-15 10:00N 54°30' E 010°16'3 5.6
2019-Jun-15 09:30N 54°28' E 010°14'2 4.5
2019-Jun-15 09:00N 54°26' E 010°12'3 5.2
2019-Jun-15 08:30N 54°23' E 010°11'2 3.3
2019-Jun-15 07:58N 54°22' E 010°09'0 0.0
2019-Jun-15 07:28N 54°22' E 010°09'0 0.0
2019-Jun-15 06:58N 54°22' E 010°09'0 0.0
2019-Jun-15 06:28N 54°22' E 010°09'0 0.0
2019-Jun-15 05:58N 54°22' E 010°09'0 0.0
2019-Jun-15 05:28N 54°22' E 010°09'0 0.0
2019-Jun-15 04:58N 54°22' E 010°09'0 0.0
2019-Jun-15 04:28N 54°22' E 010°09'0 0.0
2019-Jun-15 03:58N 54°22' E 010°09'0 0.0
2019-Jun-15 03:28N 54°22' E 010°09'0 0.0
2019-Jun-15 02:58N 54°22' E 010°09'0 0.0
2019-Jun-15 02:16N 54°22' E 010°09'0 0.0
2019-Jun-15 01:49N 54°22' E 010°09'0 0.0
2019-Jun-15 01:16N 54°22' E 010°09'0 0.0
2019-Jun-15 00:52N 54°22' E 010°09'0 0.0
2019-Jun-15 00:22N 54°22' E 010°09'0 0.0
2019-Jun-14 23:52N 54°22' E 010°09'0 0.0
2019-Jun-14 23:28N 54°22' E 010°09'0 0.0
2019-Jun-14 22:52N 54°22' E 010°09'0 0.0
2019-Jun-14 22:22N 54°22' E 010°09'0 0.0
2019-Jun-14 21:52N 54°22' E 010°09'0 0.0
2019-Jun-14 21:22N 54°22' E 010°09'0 0.0
2019-Jun-14 20:52N 54°22' E 010°09'0 0.0
2019-Jun-14 20:22N 54°22' E 010°09'0 0.0
2019-Jun-14 19:55N 54°22' E 010°09'0 0.0
2019-Jun-14 19:28N 54°22' E 010°09'0 0.0
2019-Jun-14 18:58N 54°22' E 010°09'0 0.0
2019-Jun-14 18:28N 54°22' E 010°09'0 0.0
2019-Jun-14 17:58N 54°22' E 010°09'0 0.0
2019-Jun-14 17:28N 54°22' E 010°09'0 0.0
2019-Jun-14 16:58N 54°22' E 010°09'0 0.0
2019-Jun-14 16:28N 54°22' E 010°09'0 0.0
2019-Jun-14 15:58N 54°22' E 010°09'0 0.0
2019-Jun-14 15:28N 54°22' E 010°09'0 0.0
2019-Jun-14 14:58N 54°22' E 010°09'0 0.0
2019-Jun-14 14:28N 54°22' E 010°09'0 0.0
2019-Jun-14 13:58N 54°22' E 010°09'0 0.0
2019-Jun-14 13:28N 54°22' E 010°09'0 0.0
2019-Jun-14 12:58N 54°22' E 010°09'0 0.0
2019-Jun-14 12:16N 54°22' E 010°09'0 0.0
2019-Jun-14 11:46N 54°22' E 010°09'0 0.0
2019-Jun-14 11:22N 54°22' E 010°09'0 0.0
2019-Jun-14 10:52N 54°22' E 010°09'0 0.0
2019-Jun-14 10:22N 54°22' E 010°09'0 0.0
2019-Jun-14 09:52N 54°22' E 010°09'0 0.0
2019-Jun-14 09:22N 54°22' E 010°09'0 0.0
2019-Jun-14 08:52N 54°22' E 010°09'0 0.0
2019-Jun-14 08:22N 54°22' E 010°09'0 0.0
2019-Jun-14 07:52N 54°22' E 010°09'0 0.0
2019-Jun-14 07:28N 54°22' E 010°09'0 0.0
2019-Jun-14 06:58N 54°22' E 010°09'0 0.0
2019-Jun-14 06:28N 54°22' E 010°09'0 0.0
2019-Jun-14 05:58N 54°22' E 010°09'0 0.0
2019-Jun-14 05:28N 54°22' E 010°09'0 0.0
2019-Jun-14 04:58N 54°22' E 010°09'0 0.0
2019-Jun-14 04:28N 54°22' E 010°09'0 0.0
2019-Jun-14 03:58N 54°22' E 010°09'0 0.0
2019-Jun-14 03:28N 54°22' E 010°09'0 0.0
2019-Jun-14 02:58N 54°22' E 010°09'0 0.0
2019-Jun-14 02:28N 54°22' E 010°09'0 0.0
2019-Jun-14 01:58N 54°22' E 010°09'0 0.0
2019-Jun-14 01:28N 54°22' E 010°09'0 0.0
2019-Jun-14 00:58N 54°22' E 010°09'0 0.0
2019-Jun-14 00:28N 54°22' E 010°09'0 0.0
2019-Jun-13 23:58N 54°22' E 010°09'0 0.0
2019-Jun-13 23:28N 54°22' E 010°09'0 0.0
2019-Jun-13 22:58N 54°22' E 010°09'0 0.0
2019-Jun-13 22:28N 54°22' E 010°09'0 0.0
2019-Jun-13 21:49N 54°22' E 010°09'0 0.0
2019-Jun-13 21:28N 54°22' E 010°09'0 0.0
2019-Jun-13 20:52N 54°22' E 010°09'0 0.0
2019-Jun-13 20:22N 54°22' E 010°09'0 0.0
2019-Jun-13 19:52N 54°22' E 010°09'0 0.0
2019-Jun-13 19:22N 54°22' E 010°09'0 0.0
2019-Jun-13 18:52N 54°22' E 010°09'0 0.0
2019-Jun-13 18:22N 54°22' E 010°09'0 0.0
2019-Jun-13 17:52N 54°22' E 010°09'0 0.0
2019-Jun-13 17:22N 54°22' E 010°09'0 0.0
2019-Jun-13 16:52N 54°22' E 010°09'0 0.0
2019-Jun-13 16:22N 54°22' E 010°09'0 0.0
2019-Jun-13 15:55N 54°22' E 010°09'0 0.0
2019-Jun-13 15:28N 54°22' E 010°09'0 0.0
2019-Jun-13 14:58N 54°22' E 010°09'0 0.0
2019-Jun-13 14:28N 54°22' E 010°09'0 0.0
2019-Jun-13 13:58N 54°22' E 010°09'0 0.0
2019-Jun-13 13:28N 54°22' E 010°09'0 0.0
2019-Jun-13 12:58N 54°22' E 010°09'0 0.0
2019-Jun-13 12:28N 54°22' E 010°09'0 0.0
2019-Jun-13 11:58N 54°22' E 010°09'0 0.0
2019-Jun-13 11:28N 54°22' E 010°09'0 0.0
2019-Jun-13 10:58N 54°22' E 010°09'0 0.0
2019-Jun-13 10:28N 54°22' E 010°09'0 0.0
2019-Jun-13 09:58N 54°22' E 010°09'0 0.0
2019-Jun-13 09:28N 54°22' E 010°09'0 0.0
2019-Jun-13 08:46N 54°22' E 010°09'0 0.0
2019-Jun-13 08:16N 54°22' E 010°09'0 0.0
2019-Jun-13 07:52N 54°22' E 010°09'0 0.0
2019-Jun-13 07:22N 54°22' E 010°09'0 0.0
2019-Jun-13 06:52N 54°22' E 010°09'0 0.0
2019-Jun-13 06:22N 54°22' E 010°09'0 0.0
2019-Jun-13 05:52N 54°22' E 010°09'0 0.0
2019-Jun-13 05:22N 54°22' E 010°09'0 0.0
2019-Jun-13 05:00N 54°22' E 010°09'0 0.0
2019-Jun-13 03:54N 54°22' E 010°09'0 0.0
2019-Jun-13 03:27N 54°22' E 010°09'0 0.0
2019-Jun-13 02:57N 54°22' E 010°09'0 0.0
2019-Jun-13 02:27N 54°22' E 010°09'0 0.0
2019-Jun-13 01:57N 54°22' E 010°09'0 0.0
2019-Jun-13 01:27N 54°22' E 010°09'0 0.0
2019-Jun-13 00:57N 54°22' E 010°09'0 0.0
2019-Jun-13 00:27N 54°22' E 010°09'0 0.0
2019-Jun-12 23:57N 54°22' E 010°09'0 0.0
2019-Jun-12 23:30N 54°22' E 010°09'0 0.0
2019-Jun-12 23:00N 54°22' E 010°09'0 0.0
2019-Jun-12 22:30N 54°22' E 010°09'0 0.0
2019-Jun-12 21:45N 54°22' E 010°09'0 0.0
2019-Jun-12 21:30N 54°22' E 010°09'0 0.0
2019-Jun-12 21:00N 54°22' E 010°09'0 0.0
2019-Jun-12 20:30N 54°22' E 010°09'0 0.0
2019-Jun-12 20:00N 54°22' E 010°09'0 0.0
2019-Jun-12 19:30N 54°22' E 010°09'0 0.0
2019-Jun-12 19:00N 54°22' E 010°09'0 0.0
2019-Jun-12 18:30N 54°22' E 010°09'0 0.0
2019-Jun-12 18:00N 54°22' E 010°09'0 0.0
2019-Jun-12 17:30N 54°22' E 010°09'0 0.0
2019-Jun-12 17:00N 54°22' E 010°09'0 0.0
2019-Jun-12 16:21N 54°22' E 010°09'0 0.0
2019-Jun-12 15:57N 54°22' E 010°09'0 0.0
2019-Jun-12 15:27N 54°22' E 010°09'0 0.0
2019-Jun-12 14:57N 54°22' E 010°09'0 0.0
2019-Jun-12 14:27N 54°22' E 010°09'0 0.0
2019-Jun-12 13:57N 54°22' E 010°09'0 0.0
2019-Jun-12 13:27N 54°22' E 010°09'0 0.0
2019-Jun-12 12:57N 54°22' E 010°09'0 0.0
2019-Jun-12 12:27N 54°22' E 010°09'0 0.0
2019-Jun-12 11:57N 54°22' E 010°09'0 0.0
2019-Jun-12 11:27N 54°22' E 010°09'0 0.0
2019-Jun-12 10:57N 54°22' E 010°09'0 0.0
2019-Jun-12 10:27N 54°22' E 010°09'0 0.0
2019-Jun-12 10:00N 54°22' E 010°09'0 0.0
2019-Jun-12 09:30N 54°22' E 010°09'0 0.0
2019-Jun-12 09:00N 54°22' E 010°09'0 0.0
2019-Jun-12 08:30N 54°22' E 010°09'0 0.0
2019-Jun-12 08:00N 54°22' E 010°09'0 0.0
2019-Jun-12 07:30N 54°22' E 010°09'0 0.0
2019-Jun-12 07:00N 54°22' E 010°09'0 0.0
2019-Jun-12 06:30N 54°22' E 010°09'0 0.0
2019-Jun-12 06:00N 54°22' E 010°09'0 0.0
2019-Jun-12 05:30N 54°22' E 010°09'0 0.0
2019-Jun-12 05:00N 54°22' E 010°09'0 0.0
2019-Jun-12 04:30N 54°22' E 010°09'0 0.0
2019-Jun-12 04:00N 54°22' E 010°09'0 0.0
2019-Jun-12 03:21N 54°22' E 010°09'0 0.0
2019-Jun-12 02:51N 54°22' E 010°09'0 0.0
2019-Jun-12 02:21N 54°22' E 010°09'0 0.0
2019-Jun-12 01:27N 54°22' E 010°09'0 0.0
2019-Jun-12 00:57N 54°22' E 010°09'0 0.0
2019-Jun-12 00:27N 54°22' E 010°09'0 0.0
2019-Jun-11 23:57N 54°22' E 010°09'0 0.0
2019-Jun-11 23:27N 54°22' E 010°09'0 0.0
2019-Jun-11 22:57N 54°22' E 010°09'0 0.0
2019-Jun-11 22:27N 54°22' E 010°09'0 0.0
2019-Jun-11 21:57N 54°22' E 010°09'0 0.0
2019-Jun-11 21:27N 54°22' E 010°09'0 0.0
2019-Jun-11 20:57N 54°22' E 010°09'0 0.0
2019-Jun-11 20:27N 54°22' E 010°09'0 0.0
2019-Jun-11 20:00N 54°22' E 010°09'0 0.0
2019-Jun-11 19:30N 54°22' E 010°09'0 0.0
2019-Jun-11 19:00N 54°22' E 010°09'0 0.0
2019-Jun-11 18:30N 54°22' E 010°09'0 0.0
2019-Jun-11 18:00N 54°22' E 010°09'0 0.0
2019-Jun-11 17:30N 54°22' E 010°09'0 0.0
2019-Jun-11 17:00N 54°22' E 010°09'0 0.0
2019-Jun-11 16:30N 54°22' E 010°09'0 0.0
2019-Jun-11 16:00N 54°22' E 010°09'0 0.0
2019-Jun-11 15:30N 54°22' E 010°09'0 0.0
2019-Jun-11 15:00N 54°22' E 010°09'0 0.0
2019-Jun-11 14:30N 54°22' E 010°09'0 0.0
2019-Jun-11 14:00N 54°22' E 010°09'0 0.0
2019-Jun-11 13:21N 54°22' E 010°09'0 0.0
2019-Jun-11 12:51N 54°22' E 010°09'0 0.0
2019-Jun-11 12:21N 54°22' E 010°09'0 0.0
2019-Jun-11 11:54N 54°22' E 010°09'0 0.0
2019-Jun-11 11:27N 54°22' E 010°09'0 0.0
2019-Jun-11 10:57N 54°22' E 010°09'0 0.0
2019-Jun-11 10:27N 54°22' E 010°09'0 0.0
2019-Jun-11 09:57N 54°22' E 010°09'0 0.0
2019-Jun-11 09:27N 54°22' E 010°09'0 0.0
2019-Jun-11 08:57N 54°22' E 010°09'0 0.0
2019-Jun-11 08:27N 54°22' E 010°09'0 0.0
2019-Jun-11 07:57N 54°22' E 010°09'0 0.0
2019-Jun-11 07:27N 54°22' E 010°09'0 0.0
2019-Jun-11 06:57N 54°22' E 010°09'0 0.0
2019-Jun-11 06:27N 54°22' E 010°09'0 0.0
2019-Jun-11 06:00N 54°22' E 010°09'0 0.0
2019-Jun-11 05:30N 54°22' E 010°09'0 0.0
2019-Jun-11 05:00N 54°22' E 010°09'0 0.0
2019-Jun-11 04:30N 54°22' E 010°09'0 0.0
2019-Jun-11 04:00N 54°22' E 010°09'0 0.0
2019-Jun-11 03:30N 54°22' E 010°09'0 0.0
2019-Jun-11 03:00N 54°22' E 010°09'0 0.0
2019-Jun-11 02:30N 54°22' E 010°09'0 0.0
2019-Jun-11 02:00N 54°22' E 010°09'0 0.0
2019-Jun-11 01:30N 54°22' E 010°09'0 0.0
2019-Jun-11 01:00N 54°22' E 010°09'0 0.0
2019-Jun-11 00:30N 54°22' E 010°09'0 0.0
2019-Jun-11 00:00N 54°22' E 010°09'0 0.0
2019-Jun-10 23:30N 54°22' E 010°09'0 0.0
2019-Jun-10 22:51N 54°22' E 010°09'0 0.0
2019-Jun-10 22:21N 54°22' E 010°09'0 0.0
2019-Jun-10 21:54N 54°22' E 010°09'0 0.0
2019-Jun-10 21:27N 54°22' E 010°09'0 0.0
2019-Jun-10 20:57N 54°22' E 010°09'0 0.0
2019-Jun-10 20:27N 54°22' E 010°09'0 0.0
2019-Jun-10 19:57N 54°22' E 010°09'0 0.0
2019-Jun-10 19:27N 54°22' E 010°09'0 0.0
2019-Jun-10 18:54N 54°22' E 010°09'0 0.0
2019-Jun-10 18:27N 54°22' E 010°09'0 0.0
2019-Jun-10 17:57N 54°22' E 010°09'0 0.0
2019-Jun-10 17:27N 54°22' E 010°09'0 0.0
2019-Jun-10 16:54N 54°22' E 010°09'0 0.0
2019-Jun-10 16:27N 54°22' E 010°09'0 0.0
2019-Jun-10 16:00N 54°22' E 010°09'0 0.0
2019-Jun-10 15:30N 54°22' E 010°09'0 0.0
2019-Jun-10 15:00N 54°22' E 010°09'0 0.0
2019-Jun-10 14:30N 54°22' E 010°09'0 0.0
2019-Jun-10 14:00N 54°22' E 010°09'0 0.0
2019-Jun-10 13:30N 54°22' E 010°09'0 0.0
2019-Jun-10 13:00N 54°22' E 010°09'0 0.0
2019-Jun-10 12:30N 54°22' E 010°09'0 0.0
2019-Jun-10 12:00N 54°22' E 010°09'0 0.0
2019-Jun-10 11:30N 54°22' E 010°09'0 0.0
2019-Jun-10 11:00N 54°22' E 010°09'0 0.0
2019-Jun-10 10:30N 54°22' E 010°09'0 0.0
2019-Jun-10 10:00N 54°22' E 010°09'0 0.0
2019-Jun-10 09:21N 54°22' E 010°09'0 0.0
2019-Jun-10 08:51N 54°22' E 010°09'0 0.0
2019-Jun-10 08:21N 54°22' E 010°09'0 0.0
2019-Jun-10 07:57N 54°22' E 010°09'0 0.0
2019-Jun-10 07:27N 54°22' E 010°09'0 0.0
2019-Jun-10 06:57N 54°22' E 010°09'0 0.0
2019-Jun-10 06:27N 54°22' E 010°09'0 0.0
2019-Jun-10 05:57N 54°22' E 010°09'0 0.0
2019-Jun-10 05:27N 54°22' E 010°09'0 0.0
2019-Jun-10 04:57N 54°22' E 010°09'0 0.0
2019-Jun-10 04:27N 54°22' E 010°09'0 0.0
2019-Jun-10 03:57N 54°22' E 010°09'0 0.0
2019-Jun-10 03:27N 54°22' E 010°09'0 0.0
2019-Jun-10 02:57N 54°22' E 010°09'0 0.0
2019-Jun-10 02:30N 54°22' E 010°09'0 0.0
2019-Jun-10 02:00N 54°22' E 010°09'0 0.0
2019-Jun-10 01:30N 54°22' E 010°09'0 0.0
2019-Jun-10 01:00N 54°22' E 010°09'0 0.0
2019-Jun-10 00:30N 54°22' E 010°09'0 0.0
2019-Jun-10 00:00N 54°22' E 010°09'0 0.0
2019-Jun-09 23:30N 54°22' E 010°09'0 0.0
2019-Jun-09 23:00N 54°22' E 010°09'0 0.0
2019-Jun-09 22:30N 54°22' E 010°09'0 0.0
2019-Jun-09 22:00N 54°22' E 010°09'0 0.0
2019-Jun-09 21:30N 54°22' E 010°09'0 0.0
2019-Jun-09 21:00N 54°22' E 010°09'0 0.0
2019-Jun-09 20:30N 54°22' E 010°09'0 0.0
2019-Jun-09 20:00N 54°22' E 010°09'0 0.0
2019-Jun-09 19:21N 54°22' E 010°09'0 0.0
2019-Jun-09 18:51N 54°22' E 010°09'0 0.0
2019-Jun-09 18:21N 54°22' E 010°09'0 0.0
2019-Jun-09 17:57N 54°22' E 010°09'0 0.0
2019-Jun-09 17:27N 54°22' E 010°09'0 0.0
2019-Jun-09 16:57N 54°22' E 010°09'0 0.0
2019-Jun-09 16:27N 54°22' E 010°09'0 0.0
2019-Jun-09 15:57N 54°22' E 010°09'0 0.0
2019-Jun-09 15:27N 54°22' E 010°09'0 0.0
2019-Jun-09 14:57N 54°22' E 010°09'0 0.0
2019-Jun-09 14:27N 54°22' E 010°09'0 0.0
2019-Jun-09 13:57N 54°22' E 010°09'0 0.0
2019-Jun-09 13:27N 54°22' E 010°09'0 0.0
2019-Jun-09 12:57N 54°22' E 010°09'0 0.0
2019-Jun-09 12:30N 54°22' E 010°09'0 0.0
2019-Jun-09 12:00N 54°22' E 010°09'0 0.0
2019-Jun-09 11:30N 54°22' E 010°09'0 0.0
2019-Jun-09 11:00N 54°22' E 010°09'0 0.0
2019-Jun-09 10:30N 54°22' E 010°09'0 0.1
2019-Jun-09 10:00N 54°22' E 010°09'0 0.0
2019-Jun-09 09:21N 54°22' E 010°09'0 0.0
2019-Jun-09 08:51N 54°22' E 010°09'0 0.0
2019-Jun-09 08:27N 54°22' E 010°09'0 0.0
2019-Jun-09 07:57N 54°22' E 010°09'0 0.0
2019-Jun-09 07:27N 54°22' E 010°09'0 0.0
2019-Jun-09 06:57N 54°22' E 010°09'0 0.0
2019-Jun-09 06:27N 54°22' E 010°09'0 0.0
2019-Jun-09 05:57N 54°22' E 010°09'0 0.0
2019-Jun-09 05:27N 54°22' E 010°09'0 0.0
2019-Jun-09 04:57N 54°22' E 010°09'0 0.0
2019-Jun-09 03:57N 54°22' E 010°09'0 0.0
2019-Jun-09 03:27N 54°22' E 010°09'0 0.0
2019-Jun-09 02:57N 54°22' E 010°09'0 0.0
2019-Jun-09 02:30N 54°22' E 010°09'0 0.0
2019-Jun-09 02:00N 54°22' E 010°09'0 0.0
2019-Jun-09 01:30N 54°22' E 010°09'0 0.0
2019-Jun-09 01:00N 54°22' E 010°09'0 0.0
2019-Jun-09 00:30N 54°22' E 010°09'0 0.0
2019-Jun-09 00:00N 54°22' E 010°09'0 0.0
2019-Jun-08 23:30N 54°22' E 010°09'0 0.0
2019-Jun-08 23:00N 54°22' E 010°09'0 0.0
2019-Jun-08 22:30N 54°22' E 010°09'0 0.0
2019-Jun-08 22:00N 54°22' E 010°09'0 0.0
2019-Jun-08 21:30N 54°22' E 010°09'0 0.0
2019-Jun-08 21:00N 54°22' E 010°09'0 0.0
2019-Jun-08 20:30N 54°22' E 010°09'0 0.0
2019-Jun-08 20:00N 54°22' E 010°09'0 0.0
2019-Jun-08 19:24N 54°22' E 010°09'0 0.0
2019-Jun-08 18:51N 54°22' E 010°09'0 0.0
2019-Jun-08 18:24N 54°22' E 010°09'0 0.0
2019-Jun-08 17:57N 54°22' E 010°09'0 0.0
2019-Jun-08 17:27N 54°22' E 010°09'0 0.0
2019-Jun-08 17:00N 54°22' E 010°09'0 0.0
2019-Jun-08 16:27N 54°22' E 010°09'0 0.0
2019-Jun-08 15:57N 54°22' E 010°09'0 0.0
2019-Jun-08 15:27N 54°22' E 010°09'0 0.0
2019-Jun-08 15:00N 54°22' E 010°09'1 1.4
2019-Jun-08 14:30N 54°22' E 010°10'2 4.6
2019-Jun-08 14:00N 54°24' E 010°12'2 4.6
2019-Jun-08 13:30N 54°27' E 010°13'2 3.8
2019-Jun-08 13:00N 54°28' E 010°12'3 5.9
2019-Jun-08 12:29N 54°30' E 010°08'4 7.4
2019-Jun-08 12:00N 54°29' E 010°02'3 7.0
2019-Jun-08 11:30N 54°28' E 009°56'1 1.8
2019-Jun-08 11:00N 54°28' E 009°54'2 3.3
2019-Jun-08 10:30N 54°28' E 009°51'1 1.4
2019-Jun-08 10:00N 54°28' E 009°50'0 0.0
2019-Jun-08 09:30N 54°28' E 009°50'0 0.0
2019-Jun-08 09:00N 54°28' E 009°50'0 0.0
2019-Jun-08 08:30N 54°28' E 009°50'0 0.0
2019-Jun-08 08:00N 54°28' E 009°50'0 0.0
2019-Jun-08 07:30N 54°28' E 009°50'0 0.0
2019-Jun-08 07:00N 54°28' E 009°50'0 0.0
2019-Jun-08 06:30N 54°28' E 009°50'0 0.0
2019-Jun-08 06:00N 54°28' E 009°50'0 0.0
2019-Jun-08 05:30N 54°28' E 009°50'0 0.0
2019-Jun-08 05:00N 54°28' E 009°50'0 0.0
2019-Jun-08 04:30N 54°28' E 009°50'0 0.0
2019-Jun-08 03:57N 54°28' E 009°50'0 0.0
2019-Jun-08 03:30N 54°28' E 009°50'0 0.0
2019-Jun-08 03:00N 54°28' E 009°50'0 0.0
2019-Jun-08 02:30N 54°28' E 009°50'0 0.0
2019-Jun-08 02:00N 54°28' E 009°50'0 0.0
2019-Jun-08 01:30N 54°28' E 009°50'0 0.0
2019-Jun-08 01:00N 54°28' E 009°50'0 0.0
2019-Jun-08 00:30N 54°28' E 009°50'0 0.0
2019-Jun-07 23:59N 54°28' E 009°50'0 0.0
2019-Jun-07 23:30N 54°28' E 009°50'0 0.0
2019-Jun-07 23:00N 54°28' E 009°50'0 0.0
2019-Jun-07 22:30N 54°28' E 009°50'0 0.0
2019-Jun-07 21:58N 54°28' E 009°50'0 0.0
2019-Jun-07 21:30N 54°28' E 009°50'0 0.0
2019-Jun-07 21:00N 54°28' E 009°50'0 0.0
2019-Jun-07 20:30N 54°28' E 009°50'0 0.0
2019-Jun-07 20:00N 54°28' E 009°50'0 0.0
2019-Jun-07 19:30N 54°28' E 009°50'0 0.0
2019-Jun-07 19:01N 54°28' E 009°50'0 0.0
2019-Jun-07 18:30N 54°28' E 009°50'0 0.0
2019-Jun-07 18:01N 54°28' E 009°50'0 0.0
2019-Jun-07 17:31N 54°28' E 009°50'2 3.4
2019-Jun-07 17:01N 54°28' E 009°53'2 4.9
2019-Jun-07 16:31N 54°29' E 009°57'3 6.5
2019-Jun-07 16:01N 54°31' E 010°01'3 6.5
2019-Jun-07 15:31N 54°33' E 010°05'3 6.2
2019-Jun-07 15:01N 54°35' E 010°08'3 5.9
2019-Jun-07 14:30N 54°38' E 010°12'2 4.8
2019-Jun-07 14:01N 54°39' E 010°15'3 5.5
2019-Jun-07 13:31N 54°41' E 010°19'2 4.6
2019-Jun-07 13:01N 54°42' E 010°22'3 6.2
2019-Jun-07 12:30N 54°45' E 010°26'3 6.7
2019-Jun-07 12:01N 54°47' E 010°29'3 6.7
2019-Jun-07 11:30N 54°50' E 010°32'2 3.1
2019-Jun-07 11:01N 54°51' E 010°31'0 0.0
2019-Jun-07 10:31N 54°51' E 010°31'0 0.0
2019-Jun-07 10:00N 54°51' E 010°31'0 0.0
2019-Jun-07 09:30N 54°51' E 010°31'0 0.0
2019-Jun-07 09:01N 54°51' E 010°31'0 0.0
2019-Jun-07 08:31N 54°51' E 010°31'0 0.0
2019-Jun-07 08:00N 54°51' E 010°31'0 0.0
2019-Jun-07 07:31N 54°51' E 010°31'0 0.0
2019-Jun-07 07:01N 54°51' E 010°31'0 0.0
2019-Jun-07 06:31N 54°51' E 010°31'0 0.0
2019-Jun-07 06:00N 54°51' E 010°31'0 0.0
2019-Jun-07 05:30N 54°51' E 010°31'0 0.0
2019-Jun-07 05:01N 54°51' E 010°31'0 0.0
2019-Jun-07 04:31N 54°51' E 010°31'0 0.0
2019-Jun-07 04:00N 54°51' E 010°31'0 0.0
2019-Jun-07 03:31N 54°51' E 010°31'0 0.0
2019-Jun-07 03:00N 54°51' E 010°31'0 0.0
2019-Jun-07 02:31N 54°51' E 010°31'0 0.0
2019-Jun-07 02:01N 54°51' E 010°31'0 0.0
2019-Jun-07 01:30N 54°51' E 010°31'0 0.0
2019-Jun-07 01:01N 54°51' E 010°31'0 0.0
2019-Jun-07 00:30N 54°51' E 010°31'0 0.0
2019-Jun-07 00:01N 54°51' E 010°31'0 0.0
2019-Jun-06 23:31N 54°51' E 010°31'0 0.0
2019-Jun-06 23:00N 54°51' E 010°31'0 0.0
2019-Jun-06 22:30N 54°51' E 010°31'0 0.0
2019-Jun-06 22:01N 54°51' E 010°31'0 0.0
2019-Jun-06 21:31N 54°51' E 010°31'0 0.0
2019-Jun-06 21:00N 54°51' E 010°31'0 0.0
2019-Jun-06 20:30N 54°51' E 010°31'0 0.0
2019-Jun-06 20:01N 54°51' E 010°31'0 0.0
2019-Jun-06 19:31N 54°51' E 010°31'0 0.0
2019-Jun-06 19:00N 54°51' E 010°31'0 0.0
2019-Jun-06 18:31N 54°51' E 010°31'0 0.0
2019-Jun-06 18:01N 54°51' E 010°31'0 0.0
2019-Jun-06 17:31N 54°51' E 010°31'0 0.0
2019-Jun-06 17:01N 54°51' E 010°31'0 0.0
2019-Jun-06 16:31N 54°51' E 010°31'0 0.0
2019-Jun-06 16:01N 54°51' E 010°31'0 0.0
2019-Jun-06 15:31N 54°51' E 010°31'0 0.0
2019-Jun-06 15:01N 54°51' E 010°31'1 2.1
2019-Jun-06 14:31N 54°51' E 010°33'2 4.6
2019-Jun-06 14:01N 54°48' E 010°32'3 6.3
2019-Jun-06 13:31N 54°46' E 010°29'3 5.0
2019-Jun-06 13:00N 54°43' E 010°27'2 3.2
2019-Jun-06 12:31N 54°42' E 010°26'1 2.7
2019-Jun-06 12:01N 54°41' E 010°25'1 2.7
2019-Jun-06 11:30N 54°40' E 010°24'1 2.9
2019-Jun-06 11:01N 54°38' E 010°23'3 5.8
2019-Jun-06 10:30N 54°36' E 010°20'4 7.4
2019-Jun-06 10:01N 54°32' E 010°17'4 7.1
2019-Jun-06 09:31N 54°29' E 010°15'2 3.6
2019-Jun-06 09:01N 54°28' E 010°14'3 5.7
2019-Jun-06 08:30N 54°25' E 010°12'3 5.5
2019-Jun-06 08:00N 54°22' E 010°10'1 1.1
2019-Jun-06 07:27N 54°22' E 010°09'0 0.0
2019-Jun-06 06:57N 54°22' E 010°09'0 0.0
2019-Jun-06 06:27N 54°22' E 010°09'0 0.0
2019-Jun-06 05:57N 54°22' E 010°09'0 0.0
2019-Jun-06 05:27N 54°22' E 010°09'0 0.0
2019-Jun-06 04:57N 54°22' E 010°09'0 0.0
2019-Jun-06 04:27N 54°22' E 010°09'0 0.0
2019-Jun-06 03:57N 54°22' E 010°09'0 0.0
2019-Jun-06 03:19N 54°22' E 010°09'0 0.0
2019-Jun-06 02:49N 54°22' E 010°09'0 0.0
2019-Jun-06 02:25N 54°22' E 010°09'0 0.0
2019-Jun-06 01:55N 54°22' E 010°09'0 0.0
2019-Jun-06 01:25N 54°22' E 010°09'  
Track history (hours):
 
Tides and Currents Weather Stations Pressure Air Temp Water Temp Dewpoint Dewpoint Depression Visibility Wind Speed Wind Dir Waves Ship Positions

Abel Tasman (Netherlands)

Last reported at 2019-Jun-16 01:00 UTC. Time now 2019-Jun-16 01:17 UTC.
Position N 54°51' E 010°31'.

Length 38 m; draft 2.4 m.

Type: Sailing vessel. MMSI: 245877000.

Date/timePositionNaut miles runAvg speedWind from/ knotsBaromVisibWave heightAir tempDewpointWater temp
2019-Jun-16 01:00N 54°51' E 010°31'0 0.0
2019-Jun-16 00:30N 54°51' E 010°31'0 0.0
2019-Jun-16 00:00N 54°51' E 010°31'0 0.0
2019-Jun-15 23:30N 54°51' E 010°31'0 0.0
2019-Jun-15 23:00N 54°51' E 010°31'0 0.0
2019-Jun-15 22:30N 54°51' E 010°31'0 0.0
2019-Jun-15 22:00N 54°51' E 010°31'0 0.0
2019-Jun-15 21:30N 54°51' E 010°31'0 0.0
2019-Jun-15 21:00N 54°51' E 010°31'0 0.0
2019-Jun-15 20:30N 54°51' E 010°31'0 0.0
2019-Jun-15 20:00N 54°51' E 010°31'0 0.0
2019-Jun-15 19:30N 54°51' E 010°31'0 0.0
2019-Jun-15 19:00N 54°51' E 010°31'0 0.0
2019-Jun-15 18:30N 54°51' E 010°31'0 0.0
2019-Jun-15 18:00N 54°51' E 010°31'0 0.0
2019-Jun-15 17:30N 54°51' E 010°31'0 0.0
2019-Jun-15 17:00N 54°51' E 010°31'0 0.0
2019-Jun-15 16:30N 54°51' E 010°31'0 0.0
2019-Jun-15 16:00N 54°51' E 010°31'0 0.0
2019-Jun-15 15:30N 54°51' E 010°31'0 0.0
2019-Jun-15 15:00N 54°51' E 010°31'1 2.2
2019-Jun-15 14:30N 54°51' E 010°33'3 5.2
2019-Jun-15 14:00N 54°49' E 010°29'2 4.9
2019-Jun-15 13:30N 54°47' E 010°26'2 4.6
2019-Jun-15 13:00N 54°45' E 010°25'2 4.8
2019-Jun-15 12:30N 54°43' E 010°23'3 5.2
2019-Jun-15 12:00N 54°40' E 010°22'2 4.5
2019-Jun-15 11:30N 54°38' E 010°21'2 4.8
2019-Jun-15 11:00N 54°36' E 010°20'3 5.7
2019-Jun-15 10:30N 54°33' E 010°18'3 6.5
2019-Jun-15 10:00N 54°30' E 010°16'3 5.6
2019-Jun-15 09:30N 54°28' E 010°14'2 4.5
2019-Jun-15 09:00N 54°26' E 010°12'3 5.2
2019-Jun-15 08:30N 54°23' E 010°11'2 3.3
2019-Jun-15 07:58N 54°22' E 010°09'0 0.0
2019-Jun-15 07:28N 54°22' E 010°09'0 0.0
2019-Jun-15 06:58N 54°22' E 010°09'0 0.0
2019-Jun-15 06:28N 54°22' E 010°09'0 0.0
2019-Jun-15 05:58N 54°22' E 010°09'0 0.0
2019-Jun-15 05:28N 54°22' E 010°09'0 0.0
2019-Jun-15 04:58N 54°22' E 010°09'0 0.0
2019-Jun-15 04:28N 54°22' E 010°09'0 0.0
2019-Jun-15 03:58N 54°22' E 010°09'0 0.0
2019-Jun-15 03:28N 54°22' E 010°09'0 0.0
2019-Jun-15 02:58N 54°22' E 010°09'0 0.0
2019-Jun-15 02:16N 54°22' E 010°09'0 0.0
2019-Jun-15 01:49N 54°22' E 010°09'0 0.0
2019-Jun-15 01:16N 54°22' E 010°09'0 0.0
2019-Jun-15 00:52N 54°22' E 010°09'0 0.0
2019-Jun-15 00:22N 54°22' E 010°09'0 0.0
2019-Jun-14 23:52N 54°22' E 010°09'0 0.0
2019-Jun-14 23:28N 54°22' E 010°09'0 0.0
2019-Jun-14 22:52N 54°22' E 010°09'0 0.0
2019-Jun-14 22:22N 54°22' E 010°09'0 0.0
2019-Jun-14 21:52N 54°22' E 010°09'0 0.0
2019-Jun-14 21:22N 54°22' E 010°09'0 0.0
2019-Jun-14 20:52N 54°22' E 010°09'0 0.0
2019-Jun-14 20:22N 54°22' E 010°09'0 0.0
2019-Jun-14 19:55N 54°22' E 010°09'0 0.0
2019-Jun-14 19:28N 54°22' E 010°09'0 0.0
2019-Jun-14 18:58N 54°22' E 010°09'0 0.0
2019-Jun-14 18:28N 54°22' E 010°09'0 0.0
2019-Jun-14 17:58N 54°22' E 010°09'0 0.0
2019-Jun-14 17:28N 54°22' E 010°09'0 0.0
2019-Jun-14 16:58N 54°22' E 010°09'0 0.0
2019-Jun-14 16:28N 54°22' E 010°09'0 0.0
2019-Jun-14 15:58N 54°22' E 010°09'0 0.0
2019-Jun-14 15:28N 54°22' E 010°09'0 0.0
2019-Jun-14 14:58N 54°22' E 010°09'0 0.0
2019-Jun-14 14:28N 54°22' E 010°09'0 0.0
2019-Jun-14 13:58N 54°22' E 010°09'0 0.0
2019-Jun-14 13:28N 54°22' E 010°09'0 0.0
2019-Jun-14 12:58N 54°22' E 010°09'0 0.0
2019-Jun-14 12:16N 54°22' E 010°09'0 0.0
2019-Jun-14 11:46N 54°22' E 010°09'0 0.0
2019-Jun-14 11:22N 54°22' E 010°09'0 0.0
2019-Jun-14 10:52N 54°22' E 010°09'0 0.0
2019-Jun-14 10:22N 54°22' E 010°09'0 0.0
2019-Jun-14 09:52N 54°22' E 010°09'0 0.0
2019-Jun-14 09:22N 54°22' E 010°09'0 0.0
2019-Jun-14 08:52N 54°22' E 010°09'0 0.0
2019-Jun-14 08:22N 54°22' E 010°09'0 0.0
2019-Jun-14 07:52N 54°22' E 010°09'0 0.0
2019-Jun-14 07:28N 54°22' E 010°09'0 0.0
2019-Jun-14 06:58N 54°22' E 010°09'0 0.0
2019-Jun-14 06:28N 54°22' E 010°09'0 0.0
2019-Jun-14 05:58N 54°22' E 010°09'0 0.0
2019-Jun-14 05:28N 54°22' E 010°09'0 0.0
2019-Jun-14 04:58N 54°22' E 010°09'0 0.0
2019-Jun-14 04:28N 54°22' E 010°09'0 0.0
2019-Jun-14 03:58N 54°22' E 010°09'0 0.0
2019-Jun-14 03:28N 54°22' E 010°09'0 0.0
2019-Jun-14 02:58N 54°22' E 010°09'0 0.0
2019-Jun-14 02:28N 54°22' E 010°09'0 0.0
2019-Jun-14 01:58N 54°22' E 010°09'0 0.0
2019-Jun-14 01:28N 54°22' E 010°09'0 0.0
2019-Jun-14 00:58N 54°22' E 010°09'0 0.0
2019-Jun-14 00:28N 54°22' E 010°09'0 0.0
2019-Jun-13 23:58N 54°22' E 010°09'0 0.0
2019-Jun-13 23:28N 54°22' E 010°09'0 0.0
2019-Jun-13 22:58N 54°22' E 010°09'0 0.0
2019-Jun-13 22:28N 54°22' E 010°09'0 0.0
2019-Jun-13 21:49N 54°22' E 010°09'0 0.0
2019-Jun-13 21:28N 54°22' E 010°09'0 0.0
2019-Jun-13 20:52N 54°22' E 010°09'0 0.0
2019-Jun-13 20:22N 54°22' E 010°09'0 0.0
2019-Jun-13 19:52N 54°22' E 010°09'0 0.0
2019-Jun-13 19:22N 54°22' E 010°09'0 0.0
2019-Jun-13 18:52N 54°22' E 010°09'0 0.0
2019-Jun-13 18:22N 54°22' E 010°09'0 0.0
2019-Jun-13 17:52N 54°22' E 010°09'0 0.0
2019-Jun-13 17:22N 54°22' E 010°09'0 0.0
2019-Jun-13 16:52N 54°22' E 010°09'0 0.0
2019-Jun-13 16:22N 54°22' E 010°09'0 0.0
2019-Jun-13 15:55N 54°22' E 010°09'0 0.0
2019-Jun-13 15:28N 54°22' E 010°09'0 0.0
2019-Jun-13 14:58N 54°22' E 010°09'0 0.0
2019-Jun-13 14:28N 54°22' E 010°09'0 0.0
2019-Jun-13 13:58N 54°22' E 010°09'0 0.0
2019-Jun-13 13:28N 54°22' E 010°09'0 0.0
2019-Jun-13 12:58N 54°22' E 010°09'0 0.0
2019-Jun-13 12:28N 54°22' E 010°09'0 0.0
2019-Jun-13 11:58N 54°22' E 010°09'0 0.0
2019-Jun-13 11:28N 54°22' E 010°09'0 0.0
2019-Jun-13 10:58N 54°22' E 010°09'0 0.0
2019-Jun-13 10:28N 54°22' E 010°09'0 0.0
2019-Jun-13 09:58N 54°22' E 010°09'0 0.0
2019-Jun-13 09:28N 54°22' E 010°09'0 0.0
2019-Jun-13 08:46N 54°22' E 010°09'0 0.0
2019-Jun-13 08:16N 54°22' E 010°09'0 0.0
2019-Jun-13 07:52N 54°22' E 010°09'0 0.0
2019-Jun-13 07:22N 54°22' E 010°09'0 0.0
2019-Jun-13 06:52N 54°22' E 010°09'0 0.0
2019-Jun-13 06:22N 54°22' E 010°09'0 0.0
2019-Jun-13 05:52N 54°22' E 010°09'0 0.0
2019-Jun-13 05:22N 54°22' E 010°09'0 0.0
2019-Jun-13 05:00N 54°22' E 010°09'0 0.0
2019-Jun-13 03:54N 54°22' E 010°09'0 0.0
2019-Jun-13 03:27N 54°22' E 010°09'0 0.0
2019-Jun-13 02:57N 54°22' E 010°09'0 0.0
2019-Jun-13 02:27N 54°22' E 010°09'0 0.0
2019-Jun-13 01:57N 54°22' E 010°09'0 0.0
2019-Jun-13 01:27N 54°22' E 010°09'0 0.0
2019-Jun-13 00:57N 54°22' E 010°09'0 0.0
2019-Jun-13 00:27N 54°22' E 010°09'0 0.0
2019-Jun-12 23:57N 54°22' E 010°09'0 0.0
2019-Jun-12 23:30N 54°22' E 010°09'0 0.0
2019-Jun-12 23:00N 54°22' E 010°09'0 0.0
2019-Jun-12 22:30N 54°22' E 010°09'0 0.0
2019-Jun-12 21:45N 54°22' E 010°09'0 0.0
2019-Jun-12 21:30N 54°22' E 010°09'0 0.0
2019-Jun-12 21:00N 54°22' E 010°09'0 0.0
2019-Jun-12 20:30N 54°22' E 010°09'0 0.0
2019-Jun-12 20:00N 54°22' E 010°09'0 0.0
2019-Jun-12 19:30N 54°22' E 010°09'0 0.0
2019-Jun-12 19:00N 54°22' E 010°09'0 0.0
2019-Jun-12 18:30N 54°22' E 010°09'0 0.0
2019-Jun-12 18:00N 54°22' E 010°09'0 0.0
2019-Jun-12 17:30N 54°22' E 010°09'0 0.0
2019-Jun-12 17:00N 54°22' E 010°09'0 0.0
2019-Jun-12 16:21N 54°22' E 010°09'0 0.0
2019-Jun-12 15:57N 54°22' E 010°09'0 0.0
2019-Jun-12 15:27N 54°22' E 010°09'0 0.0
2019-Jun-12 14:57N 54°22' E 010°09'0 0.0
2019-Jun-12 14:27N 54°22' E 010°09'0 0.0
2019-Jun-12 13:57N 54°22' E 010°09'0 0.0
2019-Jun-12 13:27N 54°22' E 010°09'0 0.0
2019-Jun-12 12:57N 54°22' E 010°09'0 0.0
2019-Jun-12 12:27N 54°22' E 010°09'0 0.0
2019-Jun-12 11:57N 54°22' E 010°09'0 0.0
2019-Jun-12 11:27N 54°22' E 010°09'0 0.0
2019-Jun-12 10:57N 54°22' E 010°09'0 0.0
2019-Jun-12 10:27N 54°22' E 010°09'0 0.0
2019-Jun-12 10:00N 54°22' E 010°09'0 0.0
2019-Jun-12 09:30N 54°22' E 010°09'0 0.0
2019-Jun-12 09:00N 54°22' E 010°09'0 0.0
2019-Jun-12 08:30N 54°22' E 010°09'0 0.0
2019-Jun-12 08:00N 54°22' E 010°09'0 0.0
2019-Jun-12 07:30N 54°22' E 010°09'0 0.0
2019-Jun-12 07:00N 54°22' E 010°09'0 0.0
2019-Jun-12 06:30N 54°22' E 010°09'0 0.0
2019-Jun-12 06:00N 54°22' E 010°09'0 0.0
2019-Jun-12 05:30N 54°22' E 010°09'0 0.0
2019-Jun-12 05:00N 54°22' E 010°09'0 0.0
2019-Jun-12 04:30N 54°22' E 010°09'0 0.0
2019-Jun-12 04:00N 54°22' E 010°09'0 0.0
2019-Jun-12 03:21N 54°22' E 010°09'0 0.0
2019-Jun-12 02:51N 54°22' E 010°09'0 0.0
2019-Jun-12 02:21N 54°22' E 010°09'0 0.0
2019-Jun-12 01:27N 54°22' E 010°09'0 0.0
2019-Jun-12 00:57N 54°22' E 010°09'0 0.0
2019-Jun-12 00:27N 54°22' E 010°09'0 0.0
2019-Jun-11 23:57N 54°22' E 010°09'0 0.0
2019-Jun-11 23:27N 54°22' E 010°09'0 0.0
2019-Jun-11 22:57N 54°22' E 010°09'0 0.0
2019-Jun-11 22:27N 54°22' E 010°09'0 0.0
2019-Jun-11 21:57N 54°22' E 010°09'0 0.0
2019-Jun-11 21:27N 54°22' E 010°09'0 0.0
2019-Jun-11 20:57N 54°22' E 010°09'0 0.0
2019-Jun-11 20:27N 54°22' E 010°09'0 0.0
2019-Jun-11 20:00N 54°22' E 010°09'0 0.0
2019-Jun-11 19:30N 54°22' E 010°09'0 0.0
2019-Jun-11 19:00N 54°22' E 010°09'0 0.0
2019-Jun-11 18:30N 54°22' E 010°09'0 0.0
2019-Jun-11 18:00N 54°22' E 010°09'0 0.0
2019-Jun-11 17:30N 54°22' E 010°09'0 0.0
2019-Jun-11 17:00N 54°22' E 010°09'0 0.0
2019-Jun-11 16:30N 54°22' E 010°09'0 0.0
2019-Jun-11 16:00N 54°22' E 010°09'0 0.0
2019-Jun-11 15:30N 54°22' E 010°09'0 0.0
2019-Jun-11 15:00N 54°22' E 010°09'0 0.0
2019-Jun-11 14:30N 54°22' E 010°09'0 0.0
2019-Jun-11 14:00N 54°22' E 010°09'0 0.0
2019-Jun-11 13:21N 54°22' E 010°09'0 0.0
2019-Jun-11 12:51N 54°22' E 010°09'0 0.0
2019-Jun-11 12:21N 54°22' E 010°09'0 0.0
2019-Jun-11 11:54N 54°22' E 010°09'0 0.0
2019-Jun-11 11:27N 54°22' E 010°09'0 0.0
2019-Jun-11 10:57N 54°22' E 010°09'0 0.0
2019-Jun-11 10:27N 54°22' E 010°09'0 0.0
2019-Jun-11 09:57N 54°22' E 010°09'0 0.0
2019-Jun-11 09:27N 54°22' E 010°09'0 0.0
2019-Jun-11 08:57N 54°22' E 010°09'0 0.0
2019-Jun-11 08:27N 54°22' E 010°09'0 0.0
2019-Jun-11 07:57N 54°22' E 010°09'0 0.0
2019-Jun-11 07:27N 54°22' E 010°09'0 0.0
2019-Jun-11 06:57N 54°22' E 010°09'0 0.0
2019-Jun-11 06:27N 54°22' E 010°09'0 0.0
2019-Jun-11 06:00N 54°22' E 010°09'0 0.0
2019-Jun-11 05:30N 54°22' E 010°09'0 0.0
2019-Jun-11 05:00N 54°22' E 010°09'0 0.0
2019-Jun-11 04:30N 54°22' E 010°09'0 0.0
2019-Jun-11 04:00N 54°22' E 010°09'0 0.0
2019-Jun-11 03:30N 54°22' E 010°09'0 0.0
2019-Jun-11 03:00N 54°22' E 010°09'0 0.0
2019-Jun-11 02:30N 54°22' E 010°09'0 0.0
2019-Jun-11 02:00N 54°22' E 010°09'0 0.0
2019-Jun-11 01:30N 54°22' E 010°09'0 0.0
2019-Jun-11 01:00N 54°22' E 010°09'0 0.0
2019-Jun-11 00:30N 54°22' E 010°09'0 0.0
2019-Jun-11 00:00N 54°22' E 010°09'0 0.0
2019-Jun-10 23:30N 54°22' E 010°09'0 0.0
2019-Jun-10 22:51N 54°22' E 010°09'0 0.0
2019-Jun-10 22:21N 54°22' E 010°09'0 0.0
2019-Jun-10 21:54N 54°22' E 010°09'0 0.0
2019-Jun-10 21:27N 54°22' E 010°09'0 0.0
2019-Jun-10 20:57N 54°22' E 010°09'0 0.0
2019-Jun-10 20:27N 54°22' E 010°09'0 0.0
2019-Jun-10 19:57N 54°22' E 010°09'0 0.0
2019-Jun-10 19:27N 54°22' E 010°09'0 0.0
2019-Jun-10 18:54N 54°22' E 010°09'0 0.0
2019-Jun-10 18:27N 54°22' E 010°09'0 0.0
2019-Jun-10 17:57N 54°22' E 010°09'0 0.0
2019-Jun-10 17:27N 54°22' E 010°09'0 0.0
2019-Jun-10 16:54N 54°22' E 010°09'0 0.0
2019-Jun-10 16:27N 54°22' E 010°09'0 0.0
2019-Jun-10 16:00N 54°22' E 010°09'0 0.0
2019-Jun-10 15:30N 54°22' E 010°09'0 0.0
2019-Jun-10 15:00N 54°22' E 010°09'0 0.0
2019-Jun-10 14:30N 54°22' E 010°09'0 0.0
2019-Jun-10 14:00N 54°22' E 010°09'0 0.0
2019-Jun-10 13:30N 54°22' E 010°09'0 0.0
2019-Jun-10 13:00N 54°22' E 010°09'0 0.0
2019-Jun-10 12:30N 54°22' E 010°09'0 0.0
2019-Jun-10 12:00N 54°22' E 010°09'0 0.0
2019-Jun-10 11:30N 54°22' E 010°09'0 0.0
2019-Jun-10 11:00N 54°22' E 010°09'0 0.0
2019-Jun-10 10:30N 54°22' E 010°09'0 0.0
2019-Jun-10 10:00N 54°22' E 010°09'0 0.0
2019-Jun-10 09:21N 54°22' E 010°09'0 0.0
2019-Jun-10 08:51N 54°22' E 010°09'0 0.0
2019-Jun-10 08:21N 54°22' E 010°09'0 0.0
2019-Jun-10 07:57N 54°22' E 010°09'0 0.0
2019-Jun-10 07:27N 54°22' E 010°09'0 0.0
2019-Jun-10 06:57N 54°22' E 010°09'0 0.0
2019-Jun-10 06:27N 54°22' E 010°09'0 0.0
2019-Jun-10 05:57N 54°22' E 010°09'0 0.0
2019-Jun-10 05:27N 54°22' E 010°09'0 0.0
2019-Jun-10 04:57N 54°22' E 010°09'0 0.0
2019-Jun-10 04:27N 54°22' E 010°09'0 0.0
2019-Jun-10 03:57N 54°22' E 010°09'0 0.0
2019-Jun-10 03:27N 54°22' E 010°09'0 0.0
2019-Jun-10 02:57N 54°22' E 010°09'0 0.0
2019-Jun-10 02:30N 54°22' E 010°09'0 0.0
2019-Jun-10 02:00N 54°22' E 010°09'0 0.0
2019-Jun-10 01:30N 54°22' E 010°09'0 0.0
2019-Jun-10 01:00N 54°22' E 010°09'0 0.0
2019-Jun-10 00:30N 54°22' E 010°09'0 0.0
2019-Jun-10 00:00N 54°22' E 010°09'0 0.0
2019-Jun-09 23:30N 54°22' E 010°09'0 0.0
2019-Jun-09 23:00N 54°22' E 010°09'0 0.0
2019-Jun-09 22:30N 54°22' E 010°09'0 0.0
2019-Jun-09 22:00N 54°22' E 010°09'0 0.0
2019-Jun-09 21:30N 54°22' E 010°09'0 0.0
2019-Jun-09 21:00N 54°22' E 010°09'0 0.0
2019-Jun-09 20:30N 54°22' E 010°09'0 0.0
2019-Jun-09 20:00N 54°22' E 010°09'0 0.0
2019-Jun-09 19:21N 54°22' E 010°09'0 0.0
2019-Jun-09 18:51N 54°22' E 010°09'0 0.0
2019-Jun-09 18:21N 54°22' E 010°09'0 0.0
2019-Jun-09 17:57N 54°22' E 010°09'0 0.0
2019-Jun-09 17:27N 54°22' E 010°09'0 0.0
2019-Jun-09 16:57N 54°22' E 010°09'0 0.0
2019-Jun-09 16:27N 54°22' E 010°09'0 0.0
2019-Jun-09 15:57N 54°22' E 010°09'0 0.0
2019-Jun-09 15:27N 54°22' E 010°09'0 0.0
2019-Jun-09 14:57N 54°22' E 010°09'0 0.0
2019-Jun-09 14:27N 54°22' E 010°09'0 0.0
2019-Jun-09 13:57N 54°22' E 010°09'0 0.0
2019-Jun-09 13:27N 54°22' E 010°09'0 0.0
2019-Jun-09 12:57N 54°22' E 010°09'0 0.0
2019-Jun-09 12:30N 54°22' E 010°09'0 0.0
2019-Jun-09 12:00N 54°22' E 010°09'0 0.0
2019-Jun-09 11:30N 54°22' E 010°09'0 0.0
2019-Jun-09 11:00N 54°22' E 010°09'0 0.0
2019-Jun-09 10:30N 54°22' E 010°09'0 0.1
2019-Jun-09 10:00N 54°22' E 010°09'0 0.0
2019-Jun-09 09:21N 54°22' E 010°09'0 0.0
2019-Jun-09 08:51N 54°22' E 010°09'0 0.0
2019-Jun-09 08:27N 54°22' E 010°09'0 0.0
2019-Jun-09 07:57N 54°22' E 010°09'0 0.0
2019-Jun-09 07:27N 54°22' E 010°09'0 0.0
2019-Jun-09 06:57N 54°22' E 010°09'0 0.0
2019-Jun-09 06:27N 54°22' E 010°09'0 0.0
2019-Jun-09 05:57N 54°22' E 010°09'0 0.0
2019-Jun-09 05:27N 54°22' E 010°09'0 0.0
2019-Jun-09 04:57N 54°22' E 010°09'0 0.0
2019-Jun-09 03:57N 54°22' E 010°09'0 0.0
2019-Jun-09 03:27N 54°22' E 010°09'0 0.0
2019-Jun-09 02:57N 54°22' E 010°09'0 0.0
2019-Jun-09 02:30N 54°22' E 010°09'0 0.0
2019-Jun-09 02:00N 54°22' E 010°09'0 0.0
2019-Jun-09 01:30N 54°22' E 010°09'0 0.0
2019-Jun-09 01:00N 54°22' E 010°09'0 0.0
2019-Jun-09 00:30N 54°22' E 010°09'0 0.0
2019-Jun-09 00:00N 54°22' E 010°09'0 0.0
2019-Jun-08 23:30N 54°22' E 010°09'0 0.0
2019-Jun-08 23:00N 54°22' E 010°09'0 0.0
2019-Jun-08 22:30N 54°22' E 010°09'0 0.0
2019-Jun-08 22:00N 54°22' E 010°09'0 0.0
2019-Jun-08 21:30N 54°22' E 010°09'0 0.0
2019-Jun-08 21:00N 54°22' E 010°09'0 0.0
2019-Jun-08 20:30N 54°22' E 010°09'0 0.0
2019-Jun-08 20:00N 54°22' E 010°09'0 0.0
2019-Jun-08 19:24N 54°22' E 010°09'0 0.0
2019-Jun-08 18:51N 54°22' E 010°09'0 0.0
2019-Jun-08 18:24N 54°22' E 010°09'0 0.0
2019-Jun-08 17:57N 54°22' E 010°09'0 0.0
2019-Jun-08 17:27N 54°22' E 010°09'0 0.0
2019-Jun-08 17:00N 54°22' E 010°09'0 0.0
2019-Jun-08 16:27N 54°22' E 010°09'0 0.0
2019-Jun-08 15:57N 54°22' E 010°09'0 0.0
2019-Jun-08 15:27N 54°22' E 010°09'0 0.0
2019-Jun-08 15:00N 54°22' E 010°09'1 1.4
2019-Jun-08 14:30N 54°22' E 010°10'2 4.6
2019-Jun-08 14:00N 54°24' E 010°12'2 4.6
2019-Jun-08 13:30N 54°27' E 010°13'2 3.8
2019-Jun-08 13:00N 54°28' E 010°12'3 5.9
2019-Jun-08 12:29N 54°30' E 010°08'4 7.4
2019-Jun-08 12:00N 54°29' E 010°02'3 7.0
2019-Jun-08 11:30N 54°28' E 009°56'1 1.8
2019-Jun-08 11:00N 54°28' E 009°54'2 3.3
2019-Jun-08 10:30N 54°28' E 009°51'1 1.4
2019-Jun-08 10:00N 54°28' E 009°50'0 0.0
2019-Jun-08 09:30N 54°28' E 009°50'0 0.0
2019-Jun-08 09:00N 54°28' E 009°50'0 0.0
2019-Jun-08 08:30N 54°28' E 009°50'0 0.0
2019-Jun-08 08:00N 54°28' E 009°50'0 0.0
2019-Jun-08 07:30N 54°28' E 009°50'0 0.0
2019-Jun-08 07:00N 54°28' E 009°50'0 0.0
2019-Jun-08 06:30N 54°28' E 009°50'0 0.0
2019-Jun-08 06:00N 54°28' E 009°50'0 0.0
2019-Jun-08 05:30N 54°28' E 009°50'0 0.0
2019-Jun-08 05:00N 54°28' E 009°50'0 0.0
2019-Jun-08 04:30N 54°28' E 009°50'0 0.0
2019-Jun-08 03:57N 54°28' E 009°50'0 0.0
2019-Jun-08 03:30N 54°28' E 009°50'0 0.0
2019-Jun-08 03:00N 54°28' E 009°50'0 0.0
2019-Jun-08 02:30N 54°28' E 009°50'0 0.0
2019-Jun-08 02:00N 54°28' E 009°50'0 0.0
2019-Jun-08 01:30N 54°28' E 009°50'0 0.0
2019-Jun-08 01:00N 54°28' E 009°50'0 0.0
2019-Jun-08 00:30N 54°28' E 009°50'0 0.0
2019-Jun-07 23:59N 54°28' E 009°50'0 0.0
2019-Jun-07 23:30N 54°28' E 009°50'0 0.0
2019-Jun-07 23:00N 54°28' E 009°50'0 0.0
2019-Jun-07 22:30N 54°28' E 009°50'0 0.0
2019-Jun-07 21:58N 54°28' E 009°50'0 0.0
2019-Jun-07 21:30N 54°28' E 009°50'0 0.0
2019-Jun-07 21:00N 54°28' E 009°50'0 0.0
2019-Jun-07 20:30N 54°28' E 009°50'0 0.0
2019-Jun-07 20:00N 54°28' E 009°50'0 0.0
2019-Jun-07 19:30N 54°28' E 009°50'0 0.0
2019-Jun-07 19:01N 54°28' E 009°50'0 0.0
2019-Jun-07 18:30N 54°28' E 009°50'0 0.0
2019-Jun-07 18:01N 54°28' E 009°50'0 0.0
2019-Jun-07 17:31N 54°28' E 009°50'2 3.4
2019-Jun-07 17:01N 54°28' E 009°53'2 4.9
2019-Jun-07 16:31N 54°29' E 009°57'3 6.5
2019-Jun-07 16:01N 54°31' E 010°01'3 6.5
2019-Jun-07 15:31N 54°33' E 010°05'3 6.2
2019-Jun-07 15:01N 54°35' E 010°08'3 5.9
2019-Jun-07 14:30N 54°38' E 010°12'2 4.8
2019-Jun-07 14:01N 54°39' E 010°15'3 5.5
2019-Jun-07 13:31N 54°41' E 010°19'2 4.6
2019-Jun-07 13:01N 54°42' E 010°22'3 6.2
2019-Jun-07 12:30N 54°45' E 010°26'3 6.7
2019-Jun-07 12:01N 54°47' E 010°29'3 6.7
2019-Jun-07 11:30N 54°50' E 010°32'2 3.1
2019-Jun-07 11:01N 54°51' E 010°31'0 0.0
2019-Jun-07 10:31N 54°51' E 010°31'0 0.0
2019-Jun-07 10:00N 54°51' E 010°31'0 0.0
2019-Jun-07 09:30N 54°51' E 010°31'0 0.0
2019-Jun-07 09:01N 54°51' E 010°31'0 0.0
2019-Jun-07 08:31N 54°51' E 010°31'0 0.0
2019-Jun-07 08:00N 54°51' E 010°31'0 0.0
2019-Jun-07 07:31N 54°51' E 010°31'0 0.0
2019-Jun-07 07:01N 54°51' E 010°31'0 0.0
2019-Jun-07 06:31N 54°51' E 010°31'0 0.0
2019-Jun-07 06:00N 54°51' E 010°31'0 0.0
2019-Jun-07 05:30N 54°51' E 010°31'0 0.0
2019-Jun-07 05:01N 54°51' E 010°31'0 0.0
2019-Jun-07 04:31N 54°51' E 010°31'0 0.0
2019-Jun-07 04:00N 54°51' E 010°31'0 0.0
2019-Jun-07 03:31N 54°51' E 010°31'0 0.0
2019-Jun-07 03:00N 54°51' E 010°31'0 0.0
2019-Jun-07 02:31N 54°51' E 010°31'0 0.0
2019-Jun-07 02:01N 54°51' E 010°31'0 0.0
2019-Jun-07 01:30N 54°51' E 010°31'0 0.0
2019-Jun-07 01:01N 54°51' E 010°31'0 0.0
2019-Jun-07 00:30N 54°51' E 010°31'0 0.0
2019-Jun-07 00:01N 54°51' E 010°31'0 0.0
2019-Jun-06 23:31N 54°51' E 010°31'0 0.0
2019-Jun-06 23:00N 54°51' E 010°31'0 0.0
2019-Jun-06 22:30N 54°51' E 010°31'0 0.0
2019-Jun-06 22:01N 54°51' E 010°31'0 0.0
2019-Jun-06 21:31N 54°51' E 010°31'0 0.0
2019-Jun-06 21:00N 54°51' E 010°31'0 0.0
2019-Jun-06 20:30N 54°51' E 010°31'0 0.0
2019-Jun-06 20:01N 54°51' E 010°31'0 0.0
2019-Jun-06 19:31N 54°51' E 010°31'0 0.0
2019-Jun-06 19:00N 54°51' E 010°31'0 0.0
2019-Jun-06 18:31N 54°51' E 010°31'0 0.0
2019-Jun-06 18:01N 54°51' E 010°31'0 0.0
2019-Jun-06 17:31N 54°51' E 010°31'0 0.0
2019-Jun-06 17:01N 54°51' E 010°31'0 0.0
2019-Jun-06 16:31N 54°51' E 010°31'0 0.0
2019-Jun-06 16:01N 54°51' E 010°31'0 0.0
2019-Jun-06 15:31N 54°51' E 010°31'0 0.0
2019-Jun-06 15:01N 54°51' E 010°31'1 2.1
2019-Jun-06 14:31N 54°51' E 010°33'2 4.6
2019-Jun-06 14:01N 54°48' E 010°32'3 6.3
2019-Jun-06 13:31N 54°46' E 010°29'3 5.0
2019-Jun-06 13:00N 54°43' E 010°27'2 3.2
2019-Jun-06 12:31N 54°42' E 010°26'1 2.7
2019-Jun-06 12:01N 54°41' E 010°25'1 2.7
2019-Jun-06 11:30N 54°40' E 010°24'1 2.9
2019-Jun-06 11:01N 54°38' E 010°23'3 5.8
2019-Jun-06 10:30N 54°36' E 010°20'4 7.4
2019-Jun-06 10:01N 54°32' E 010°17'4 7.1
2019-Jun-06 09:31N 54°29' E 010°15'2 3.6
2019-Jun-06 09:01N 54°28' E 010°14'3 5.7
2019-Jun-06 08:30N 54°25' E 010°12'3 5.5
2019-Jun-06 08:00N 54°22' E 010°10'1 1.1
2019-Jun-06 07:27N 54°22' E 010°09'0 0.0
2019-Jun-06 06:57N 54°22' E 010°09'0 0.0
2019-Jun-06 06:27N 54°22' E 010°09'0 0.0
2019-Jun-06 05:57N 54°22' E 010°09'0 0.0
2019-Jun-06 05:27N 54°22' E 010°09'0 0.0
2019-Jun-06 04:57N 54°22' E 010°09'0 0.0
2019-Jun-06 04:27N 54°22' E 010°09'0 0.0
2019-Jun-06 03:57N 54°22' E 010°09'0 0.0
2019-Jun-06 03:19N 54°22' E 010°09'0 0.0
2019-Jun-06 02:49N 54°22' E 010°09'0 0.0
2019-Jun-06 02:25N 54°22' E 010°09'0 0.0
2019-Jun-06 01:55N 54°22' E 010°09'0 0.0
2019-Jun-06 01:25N 54°22' E 010°09'  

Dump ship's entire track history